sensor_id;sensor_type;location;lat;lon;timestamp;P1;durP1;ratioP1;P2;durP2;ratioP2
11046;SDS011;5576;50.008;10.596;2023-03-03T00:02:20;24.05;;;19.35;;
11046;SDS011;5576;50.008;10.596;2023-03-03T00:04:46;28.23;;;22.00;;
11046;SDS011;5576;50.008;10.596;2023-03-03T00:07:12;47.83;;;35.47;;
11046;SDS011;5576;50.008;10.596;2023-03-03T00:09:39;38.13;;;29.35;;
11046;SDS011;5576;50.008;10.596;2023-03-03T00:14:52;32.65;;;26.10;;
11046;SDS011;5576;50.008;10.596;2023-03-03T00:17:21;28.77;;;22.67;;
11046;SDS011;5576;50.008;10.596;2023-03-03T00:19:49;70.00;;;52.20;;
11046;SDS011;5576;50.008;10.596;2023-03-03T00:22:21;28.60;;;22.67;;
11046;SDS011;5576;50.008;10.596;2023-03-03T00:25:00;110.22;;;73.95;;
11046;SDS011;5576;50.008;10.596;2023-03-03T00:27:49;71.82;;;49.53;;
11046;SDS011;5576;50.008;10.596;2023-03-03T00:30:16;35.85;;;26.35;;
11046;SDS011;5576;50.008;10.596;2023-03-03T00:32:49;18.35;;;14.77;;
11046;SDS011;5576;50.008;10.596;2023-03-03T00:37:54;22.92;;;18.63;;
11046;SDS011;5576;50.008;10.596;2023-03-03T00:40:23;21.27;;;16.73;;
11046;SDS011;5576;50.008;10.596;2023-03-03T00:42:51;20.85;;;16.98;;
11046;SDS011;5576;50.008;10.596;2023-03-03T00:50:55;20.45;;;16.50;;
11046;SDS011;5576;50.008;10.596;2023-03-03T00:53:22;19.27;;;15.90;;
11046;SDS011;5576;50.008;10.596;2023-03-03T00:55:51;20.70;;;16.58;;
11046;SDS011;5576;50.008;10.596;2023-03-03T00:58:18;24.35;;;21.42;;
11046;SDS011;5576;50.008;10.596;2023-03-03T01:00:48;18.75;;;15.75;;
11046;SDS011;5576;50.008;10.596;2023-03-03T01:03:19;17.77;;;14.80;;
11046;SDS011;5576;50.008;10.596;2023-03-03T01:05:46;18.17;;;14.65;;
11046;SDS011;5576;50.008;10.596;2023-03-03T01:08:13;19.13;;;15.30;;
11046;SDS011;5576;50.008;10.596;2023-03-03T01:10:41;17.98;;;14.90;;
11046;SDS011;5576;50.008;10.596;2023-03-03T01:13:10;16.95;;;14.15;;
11046;SDS011;5576;50.008;10.596;2023-03-03T01:15:37;17.98;;;14.88;;
11046;SDS011;5576;50.008;10.596;2023-03-03T01:18:04;20.55;;;16.52;;
11046;SDS011;5576;50.008;10.596;2023-03-03T01:20:30;18.98;;;15.95;;
11046;SDS011;5576;50.008;10.596;2023-03-03T01:22:56;19.07;;;15.60;;
11046;SDS011;5576;50.008;10.596;2023-03-03T01:25:21;19.17;;;15.23;;
11046;SDS011;5576;50.008;10.596;2023-03-03T01:27:47;21.63;;;17.80;;
11046;SDS011;5576;50.008;10.596;2023-03-03T01:30:13;24.77;;;19.73;;
11046;SDS011;5576;50.008;10.596;2023-03-03T01:32:39;22.60;;;16.87;;
11046;SDS011;5576;50.008;10.596;2023-03-03T01:35:05;19.10;;;16.05;;
11046;SDS011;5576;50.008;10.596;2023-03-03T01:37:33;19.63;;;15.90;;
11046;SDS011;5576;50.008;10.596;2023-03-03T01:40:01;19.00;;;15.50;;
11046;SDS011;5576;50.008;10.596;2023-03-03T01:42:28;20.53;;;16.20;;
11046;SDS011;5576;50.008;10.596;2023-03-03T01:45:11;19.50;;;16.03;;
11046;SDS011;5576;50.008;10.596;2023-03-03T01:47:38;24.05;;;19.63;;
11046;SDS011;5576;50.008;10.596;2023-03-03T01:50:14;23.77;;;19.38;;
11046;SDS011;5576;50.008;10.596;2023-03-03T01:52:47;28.63;;;22.83;;
11046;SDS011;5576;50.008;10.596;2023-03-03T01:55:16;34.08;;;26.25;;
11046;SDS011;5576;50.008;10.596;2023-03-03T01:57:47;26.27;;;20.35;;
11046;SDS011;5576;50.008;10.596;2023-03-03T02:00:22;23.42;;;18.90;;
11046;SDS011;5576;50.008;10.596;2023-03-03T02:02:48;21.55;;;17.60;;
11046;SDS011;5576;50.008;10.596;2023-03-03T02:05:14;23.30;;;18.58;;
11046;SDS011;5576;50.008;10.596;2023-03-03T02:07:41;24.60;;;19.45;;
11046;SDS011;5576;50.008;10.596;2023-03-03T02:10:22;23.65;;;18.83;;
11046;SDS011;5576;50.008;10.596;2023-03-03T02:15:19;25.00;;;19.57;;
11046;SDS011;5576;50.008;10.596;2023-03-03T02:17:47;27.02;;;21.35;;
11046;SDS011;5576;50.008;10.596;2023-03-03T02:20:19;27.77;;;22.05;;
11046;SDS011;5576;50.008;10.596;2023-03-03T02:25:44;30.77;;;24.25;;
11046;SDS011;5576;50.008;10.596;2023-03-03T02:28:15;31.77;;;24.30;;
11046;SDS011;5576;50.008;10.596;2023-03-03T02:30:41;28.40;;;21.95;;
11046;SDS011;5576;50.008;10.596;2023-03-03T02:33:08;21.58;;;17.73;;
11046;SDS011;5576;50.008;10.596;2023-03-03T02:35:36;25.07;;;19.73;;
11046;SDS011;5576;50.008;10.596;2023-03-03T02:38:08;31.95;;;24.05;;
11046;SDS011;5576;50.008;10.596;2023-03-03T02:43:27;35.05;;;26.80;;
11046;SDS011;5576;50.008;10.596;2023-03-03T02:46:00;25.02;;;19.17;;
11046;SDS011;5576;50.008;10.596;2023-03-03T02:48:26;24.60;;;19.05;;
11046;SDS011;5576;50.008;10.596;2023-03-03T02:50:51;22.57;;;17.53;;
11046;SDS011;5576;50.008;10.596;2023-03-03T02:53:17;42.42;;;30.48;;
11046;SDS011;5576;50.008;10.596;2023-03-03T02:55:43;31.90;;;24.13;;
11046;SDS011;5576;50.008;10.596;2023-03-03T02:58:09;40.28;;;29.35;;
11046;SDS011;5576;50.008;10.596;2023-03-03T03:00:34;59.65;;;40.08;;
11046;SDS011;5576;50.008;10.596;2023-03-03T03:03:00;40.40;;;29.13;;
11046;SDS011;5576;50.008;10.596;2023-03-03T03:05:26;34.45;;;25.65;;
11046;SDS011;5576;50.008;10.596;2023-03-03T03:07:53;32.70;;;25.10;;
11046;SDS011;5576;50.008;10.596;2023-03-03T03:10:19;27.08;;;21.27;;
11046;SDS011;5576;50.008;10.596;2023-03-03T03:12:45;27.42;;;20.70;;
11046;SDS011;5576;50.008;10.596;2023-03-03T03:15:12;27.33;;;19.80;;
11046;SDS011;5576;50.008;10.596;2023-03-03T03:17:40;24.90;;;19.58;;
11046;SDS011;5576;50.008;10.596;2023-03-03T03:20:05;24.55;;;19.65;;
11046;SDS011;5576;50.008;10.596;2023-03-03T03:22:32;24.35;;;19.05;;
11046;SDS011;5576;50.008;10.596;2023-03-03T03:24:58;23.33;;;18.92;;
11046;SDS011;5576;50.008;10.596;2023-03-03T03:27:24;26.65;;;20.50;;
11046;SDS011;5576;50.008;10.596;2023-03-03T03:29:50;26.52;;;20.48;;
11046;SDS011;5576;50.008;10.596;2023-03-03T03:32:17;25.45;;;20.02;;
11046;SDS011;5576;50.008;10.596;2023-03-03T03:34:43;24.08;;;19.20;;
11046;SDS011;5576;50.008;10.596;2023-03-03T03:37:09;23.15;;;18.67;;
11046;SDS011;5576;50.008;10.596;2023-03-03T03:39:36;25.10;;;19.17;;
11046;SDS011;5576;50.008;10.596;2023-03-03T03:42:03;24.65;;;19.90;;
11046;SDS011;5576;50.008;10.596;2023-03-03T03:44:29;23.42;;;19.08;;
11046;SDS011;5576;50.008;10.596;2023-03-03T03:46:55;23.63;;;19.00;;
11046;SDS011;5576;50.008;10.596;2023-03-03T03:49:20;26.58;;;20.10;;
11046;SDS011;5576;50.008;10.596;2023-03-03T03:51:48;25.98;;;19.63;;
11046;SDS011;5576;50.008;10.596;2023-03-03T03:54:17;26.47;;;21.03;;
11046;SDS011;5576;50.008;10.596;2023-03-03T03:56:43;25.95;;;20.92;;
11046;SDS011;5576;50.008;10.596;2023-03-03T03:59:09;25.50;;;20.63;;
11046;SDS011;5576;50.008;10.596;2023-03-03T04:01:36;25.73;;;19.70;;
11046;SDS011;5576;50.008;10.596;2023-03-03T04:04:02;24.95;;;19.60;;
11046;SDS011;5576;50.008;10.596;2023-03-03T04:06:29;25.25;;;19.80;;
11046;SDS011;5576;50.008;10.596;2023-03-03T04:08:55;26.58;;;20.70;;
11046;SDS011;5576;50.008;10.596;2023-03-03T04:11:22;24.20;;;19.63;;
11046;SDS011;5576;50.008;10.596;2023-03-03T04:13:48;25.83;;;19.85;;
11046;SDS011;5576;50.008;10.596;2023-03-03T04:16:13;26.80;;;20.37;;
11046;SDS011;5576;50.008;10.596;2023-03-03T04:18:41;25.95;;;20.50;;
11046;SDS011;5576;50.008;10.596;2023-03-03T04:21:11;26.33;;;20.80;;
11046;SDS011;5576;50.008;10.596;2023-03-03T04:23:39;25.90;;;21.13;;
11046;SDS011;5576;50.008;10.596;2023-03-03T04:26:05;28.17;;;21.63;;
11046;SDS011;5576;50.008;10.596;2023-03-03T04:28:32;27.13;;;20.60;;
11046;SDS011;5576;50.008;10.596;2023-03-03T04:30:59;26.45;;;20.45;;
11046;SDS011;5576;50.008;10.596;2023-03-03T04:33:26;26.98;;;21.10;;
11046;SDS011;5576;50.008;10.596;2023-03-03T04:35:52;28.13;;;20.92;;
11046;SDS011;5576;50.008;10.596;2023-03-03T04:38:18;29.92;;;23.00;;
11046;SDS011;5576;50.008;10.596;2023-03-03T04:40:45;29.65;;;21.98;;
11046;SDS011;5576;50.008;10.596;2023-03-03T04:43:12;28.48;;;21.95;;
11046;SDS011;5576;50.008;10.596;2023-03-03T04:45:38;28.30;;;21.88;;
11046;SDS011;5576;50.008;10.596;2023-03-03T04:48:05;30.10;;;22.90;;
11046;SDS011;5576;50.008;10.596;2023-03-03T04:50:32;31.45;;;23.42;;
11046;SDS011;5576;50.008;10.596;2023-03-03T04:52:59;34.38;;;26.08;;
11046;SDS011;5576;50.008;10.596;2023-03-03T04:55:25;34.92;;;26.00;;
11046;SDS011;5576;50.008;10.596;2023-03-03T04:57:51;34.93;;;26.37;;
11046;SDS011;5576;50.008;10.596;2023-03-03T05:00:17;32.95;;;24.73;;
11046;SDS011;5576;50.008;10.596;2023-03-03T05:02:43;29.27;;;23.40;;
11046;SDS011;5576;50.008;10.596;2023-03-03T05:05:09;28.90;;;23.05;;
11046;SDS011;5576;50.008;10.596;2023-03-03T05:07:35;30.88;;;22.90;;
11046;SDS011;5576;50.008;10.596;2023-03-03T05:10:01;29.63;;;23.13;;
11046;SDS011;5576;50.008;10.596;2023-03-03T05:12:26;29.73;;;22.93;;
11046;SDS011;5576;50.008;10.596;2023-03-03T05:14:52;30.02;;;23.55;;
11046;SDS011;5576;50.008;10.596;2023-03-03T05:17:18;30.00;;;22.93;;
11046;SDS011;5576;50.008;10.596;2023-03-03T05:19:44;29.80;;;23.23;;
11046;SDS011;5576;50.008;10.596;2023-03-03T05:22:09;33.72;;;25.08;;
11046;SDS011;5576;50.008;10.596;2023-03-03T05:24:35;33.37;;;25.37;;
11046;SDS011;5576;50.008;10.596;2023-03-03T05:27:01;31.63;;;23.50;;
11046;SDS011;5576;50.008;10.596;2023-03-03T05:29:27;29.83;;;23.00;;
11046;SDS011;5576;50.008;10.596;2023-03-03T05:31:56;32.30;;;24.05;;
11046;SDS011;5576;50.008;10.596;2023-03-03T05:34:22;29.77;;;23.27;;
11046;SDS011;5576;50.008;10.596;2023-03-03T05:36:48;29.92;;;22.98;;
11046;SDS011;5576;50.008;10.596;2023-03-03T05:39:14;30.67;;;23.08;;
11046;SDS011;5576;50.008;10.596;2023-03-03T05:41:40;30.13;;;23.70;;
11046;SDS011;5576;50.008;10.596;2023-03-03T05:44:06;31.02;;;24.00;;
11046;SDS011;5576;50.008;10.596;2023-03-03T05:46:32;33.25;;;26.23;;
11046;SDS011;5576;50.008;10.596;2023-03-03T05:48:58;33.70;;;26.17;;
11046;SDS011;5576;50.008;10.596;2023-03-03T05:51:23;36.95;;;28.73;;
11046;SDS011;5576;50.008;10.596;2023-03-03T05:53:49;32.03;;;24.47;;
11046;SDS011;5576;50.008;10.596;2023-03-03T05:56:15;31.37;;;24.57;;
11046;SDS011;5576;50.008;10.596;2023-03-03T05:58:41;29.75;;;23.60;;
11046;SDS011;5576;50.008;10.596;2023-03-03T06:01:07;37.70;;;28.13;;
11046;SDS011;5576;50.008;10.596;2023-03-03T06:03:32;45.65;;;34.15;;
11046;SDS011;5576;50.008;10.596;2023-03-03T06:05:58;35.38;;;27.25;;
11046;SDS011;5576;50.008;10.596;2023-03-03T06:08:24;32.47;;;24.37;;
11046;SDS011;5576;50.008;10.596;2023-03-03T06:10:49;38.42;;;28.73;;
11046;SDS011;5576;50.008;10.596;2023-03-03T06:13:15;32.97;;;25.08;;
11046;SDS011;5576;50.008;10.596;2023-03-03T06:15:41;30.40;;;23.30;;
11046;SDS011;5576;50.008;10.596;2023-03-03T06:18:07;30.48;;;22.92;;
11046;SDS011;5576;50.008;10.596;2023-03-03T06:20:33;29.02;;;22.70;;
11046;SDS011;5576;50.008;10.596;2023-03-03T06:22:59;30.52;;;23.08;;
11046;SDS011;5576;50.008;10.596;2023-03-03T06:25:25;31.00;;;23.77;;
11046;SDS011;5576;50.008;10.596;2023-03-03T06:27:51;31.77;;;23.60;;
11046;SDS011;5576;50.008;10.596;2023-03-03T06:30:17;30.90;;;22.60;;
11046;SDS011;5576;50.008;10.596;2023-03-03T06:32:43;28.93;;;21.57;;
11046;SDS011;5576;50.008;10.596;2023-03-03T06:35:09;29.33;;;22.30;;
11046;SDS011;5576;50.008;10.596;2023-03-03T06:37:35;32.33;;;24.10;;
11046;SDS011;5576;50.008;10.596;2023-03-03T06:40:01;35.45;;;27.48;;
11046;SDS011;5576;50.008;10.596;2023-03-03T06:42:28;33.60;;;25.40;;
11046;SDS011;5576;50.008;10.596;2023-03-03T06:44:54;36.33;;;26.95;;
11046;SDS011;5576;50.008;10.596;2023-03-03T06:47:20;35.37;;;27.20;;
11046;SDS011;5576;50.008;10.596;2023-03-03T06:49:46;33.03;;;25.80;;
11046;SDS011;5576;50.008;10.596;2023-03-03T06:52:13;36.33;;;28.77;;
11046;SDS011;5576;50.008;10.596;2023-03-03T06:54:43;35.75;;;26.98;;
11046;SDS011;5576;50.008;10.596;2023-03-03T06:57:14;35.73;;;29.13;;
11046;SDS011;5576;50.008;10.596;2023-03-03T06:59:59;38.03;;;29.23;;
11046;SDS011;5576;50.008;10.596;2023-03-03T07:02:38;35.92;;;27.50;;
11046;SDS011;5576;50.008;10.596;2023-03-03T07:05:05;34.17;;;28.70;;
11046;SDS011;5576;50.008;10.596;2023-03-03T07:07:36;34.90;;;26.50;;
11046;SDS011;5576;50.008;10.596;2023-03-03T07:10:05;33.53;;;25.92;;
11046;SDS011;5576;50.008;10.596;2023-03-03T07:12:40;33.08;;;25.55;;
11046;SDS011;5576;50.008;10.596;2023-03-03T07:17:44;39.50;;;30.17;;
11046;SDS011;5576;50.008;10.596;2023-03-03T07:20:17;37.90;;;29.13;;
11046;SDS011;5576;50.008;10.596;2023-03-03T07:22:47;39.97;;;30.93;;
11046;SDS011;5576;50.008;10.596;2023-03-03T07:25:18;39.72;;;29.30;;
11046;SDS011;5576;50.008;10.596;2023-03-03T07:27:47;33.30;;;24.77;;
11046;SDS011;5576;50.008;10.596;2023-03-03T07:32:44;43.67;;;33.30;;
11046;SDS011;5576;50.008;10.596;2023-03-03T07:37:57;67.75;;;48.70;;
11046;SDS011;5576;50.008;10.596;2023-03-03T07:40:26;51.70;;;37.25;;
11046;SDS011;5576;50.008;10.596;2023-03-03T07:45:59;49.60;;;36.50;;
11046;SDS011;5576;50.008;10.596;2023-03-03T07:48:34;46.60;;;35.15;;
11046;SDS011;5576;50.008;10.596;2023-03-03T07:51:04;45.05;;;32.45;;
11046;SDS011;5576;50.008;10.596;2023-03-03T07:53:36;42.50;;;31.27;;
11046;SDS011;5576;50.008;10.596;2023-03-03T07:56:04;43.85;;;32.28;;
11046;SDS011;5576;50.008;10.596;2023-03-03T07:58:40;41.42;;;31.20;;
11046;SDS011;5576;50.008;10.596;2023-03-03T08:07:10;42.00;;;32.23;;
11046;SDS011;5576;50.008;10.596;2023-03-03T08:09:43;38.22;;;28.33;;
11046;SDS011;5576;50.008;10.596;2023-03-03T08:14:51;49.22;;;38.97;;
11046;SDS011;5576;50.008;10.596;2023-03-03T08:17:20;33.47;;;25.17;;
11046;SDS011;5576;50.008;10.596;2023-03-03T08:19:49;30.02;;;22.60;;
11046;SDS011;5576;50.008;10.596;2023-03-03T08:22:18;28.02;;;21.38;;
11046;SDS011;5576;50.008;10.596;2023-03-03T08:24:54;29.23;;;22.67;;
11046;SDS011;5576;50.008;10.596;2023-03-03T08:27:20;28.27;;;21.97;;
11046;SDS011;5576;50.008;10.596;2023-03-03T08:29:45;27.85;;;21.30;;
11046;SDS011;5576;50.008;10.596;2023-03-03T08:32:11;27.43;;;21.10;;
11046;SDS011;5576;50.008;10.596;2023-03-03T08:34:37;25.38;;;20.55;;
11046;SDS011;5576;50.008;10.596;2023-03-03T08:37:02;27.73;;;20.50;;
11046;SDS011;5576;50.008;10.596;2023-03-03T08:39:28;26.15;;;20.13;;
11046;SDS011;5576;50.008;10.596;2023-03-03T08:41:54;26.08;;;20.33;;
11046;SDS011;5576;50.008;10.596;2023-03-03T08:44:20;25.63;;;20.23;;
11046;SDS011;5576;50.008;10.596;2023-03-03T08:46:45;24.30;;;19.02;;
11046;SDS011;5576;50.008;10.596;2023-03-03T08:49:11;24.73;;;19.77;;
11046;SDS011;5576;50.008;10.596;2023-03-03T08:51:37;26.13;;;20.05;;
11046;SDS011;5576;50.008;10.596;2023-03-03T08:54:03;27.15;;;21.98;;
11046;SDS011;5576;50.008;10.596;2023-03-03T08:56:28;27.77;;;21.20;;
11046;SDS011;5576;50.008;10.596;2023-03-03T08:58:54;29.38;;;21.67;;
11046;SDS011;5576;50.008;10.596;2023-03-03T09:01:20;23.97;;;18.43;;
11046;SDS011;5576;50.008;10.596;2023-03-03T09:03:46;25.75;;;19.77;;
11046;SDS011;5576;50.008;10.596;2023-03-03T09:06:11;26.15;;;20.02;;
11046;SDS011;5576;50.008;10.596;2023-03-03T09:08:37;24.03;;;18.50;;
11046;SDS011;5576;50.008;10.596;2023-03-03T09:11:11;25.77;;;20.70;;
11046;SDS011;5576;50.008;10.596;2023-03-03T09:13:38;24.73;;;19.45;;
11046;SDS011;5576;50.008;10.596;2023-03-03T09:16:09;24.13;;;19.40;;
11046;SDS011;5576;50.008;10.596;2023-03-03T09:18:38;23.42;;;18.13;;
11046;SDS011;5576;50.008;10.596;2023-03-03T09:21:15;25.63;;;21.00;;
11046;SDS011;5576;50.008;10.596;2023-03-03T09:23:55;24.20;;;19.05;;
11046;SDS011;5576;50.008;10.596;2023-03-03T09:26:24;25.60;;;19.80;;
11046;SDS011;5576;50.008;10.596;2023-03-03T09:28:54;28.88;;;22.15;;
11046;SDS011;5576;50.008;10.596;2023-03-03T09:31:28;23.88;;;17.92;;
11046;SDS011;5576;50.008;10.596;2023-03-03T09:34:02;23.30;;;18.73;;
11046;SDS011;5576;50.008;10.596;2023-03-03T09:36:54;26.48;;;21.17;;
11046;SDS011;5576;50.008;10.596;2023-03-03T09:39:21;23.13;;;18.17;;
11046;SDS011;5576;50.008;10.596;2023-03-03T09:44:29;37.75;;;25.70;;
11046;SDS011;5576;50.008;10.596;2023-03-03T09:57:50;30.65;;;22.20;;
11046;SDS011;5576;50.008;10.596;2023-03-03T10:06:16;18.55;;;14.95;;
11046;SDS011;5576;50.008;10.596;2023-03-03T10:08:49;20.25;;;15.35;;
11046;SDS011;5576;50.008;10.596;2023-03-03T10:11:37;18.70;;;14.20;;
11046;SDS011;5576;50.008;10.596;2023-03-03T10:27:53;14.73;;;10.82;;
11046;SDS011;5576;50.008;10.596;2023-03-03T10:30:32;14.10;;;11.32;;
11046;SDS011;5576;50.008;10.596;2023-03-03T10:45:05;12.83;;;10.53;;
11046;SDS011;5576;50.008;10.596;2023-03-03T10:51:05;13.83;;;10.23;;
11046;SDS011;5576;50.008;10.596;2023-03-03T11:02:02;12.13;;;9.67;;
11046;SDS011;5576;50.008;10.596;2023-03-03T11:04:46;11.43;;;9.15;;
11046;SDS011;5576;50.008;10.596;2023-03-03T11:07:26;10.35;;;8.93;;
11046;SDS011;5576;50.008;10.596;2023-03-03T11:15:54;11.77;;;8.90;;
11046;SDS011;5576;50.008;10.596;2023-03-03T11:21:12;10.15;;;8.13;;
11046;SDS011;5576;50.008;10.596;2023-03-03T11:31:56;9.65;;;7.53;;
11046;SDS011;5576;50.008;10.596;2023-03-03T11:40:11;9.70;;;7.45;;
11046;SDS011;5576;50.008;10.596;2023-03-03T11:45:46;9.48;;;7.75;;
11046;SDS011;5576;50.008;10.596;2023-03-03T11:48:17;9.85;;;7.65;;
11046;SDS011;5576;50.008;10.596;2023-03-03T11:53:43;7.85;;;6.80;;
11046;SDS011;5576;50.008;10.596;2023-03-03T11:56:24;8.77;;;7.15;;
11046;SDS011;5576;50.008;10.596;2023-03-03T11:59:13;8.75;;;7.15;;
11046;SDS011;5576;50.008;10.596;2023-03-03T12:02:03;9.55;;;7.70;;
11046;SDS011;5576;50.008;10.596;2023-03-03T12:04:40;9.77;;;7.30;;
11046;SDS011;5576;50.008;10.596;2023-03-03T12:16:04;8.10;;;6.40;;
11046;SDS011;5576;50.008;10.596;2023-03-03T12:21:33;8.23;;;6.18;;
11046;SDS011;5576;50.008;10.596;2023-03-03T12:24:30;8.73;;;6.75;;
11046;SDS011;5576;50.008;10.596;2023-03-03T12:27:27;7.85;;;6.05;;
11046;SDS011;5576;50.008;10.596;2023-03-03T12:30:05;7.93;;;6.30;;
11046;SDS011;5576;50.008;10.596;2023-03-03T12:41:04;8.57;;;6.47;;
11046;SDS011;5576;50.008;10.596;2023-03-03T12:43:40;7.35;;;6.30;;
11046;SDS011;5576;50.008;10.596;2023-03-03T12:46:16;8.50;;;6.67;;
11046;SDS011;5576;50.008;10.596;2023-03-03T12:48:45;9.25;;;7.18;;
11046;SDS011;5576;50.008;10.596;2023-03-03T12:56:59;8.82;;;6.35;;
11046;SDS011;5576;50.008;10.596;2023-03-03T13:02:44;7.45;;;6.20;;
11046;SDS011;5576;50.008;10.596;2023-03-03T13:11:06;7.93;;;6.40;;
11046;SDS011;5576;50.008;10.596;2023-03-03T13:13:43;8.40;;;6.43;;
11046;SDS011;5576;50.008;10.596;2023-03-03T13:16:20;8.38;;;6.70;;
11046;SDS011;5576;50.008;10.596;2023-03-03T13:18:54;8.68;;;6.65;;
11046;SDS011;5576;50.008;10.596;2023-03-03T13:21:27;9.05;;;6.90;;
11046;SDS011;5576;50.008;10.596;2023-03-03T13:24:08;9.05;;;7.07;;
11046;SDS011;5576;50.008;10.596;2023-03-03T13:26:39;9.88;;;7.05;;
11046;SDS011;5576;50.008;10.596;2023-03-03T13:29:14;9.55;;;7.70;;
11046;SDS011;5576;50.008;10.596;2023-03-03T13:34:40;10.13;;;8.40;;
11046;SDS011;5576;50.008;10.596;2023-03-03T13:37:29;10.30;;;8.38;;
11046;SDS011;5576;50.008;10.596;2023-03-03T13:40:14;9.40;;;7.75;;
11046;SDS011;5576;50.008;10.596;2023-03-03T13:42:44;11.65;;;8.02;;
11046;SDS011;5576;50.008;10.596;2023-03-03T13:51:09;10.10;;;8.25;;
11046;SDS011;5576;50.008;10.596;2023-03-03T13:54:05;9.30;;;7.90;;
11046;SDS011;5576;50.008;10.596;2023-03-03T13:59:31;10.20;;;8.40;;
11046;SDS011;5576;50.008;10.596;2023-03-03T14:02:06;13.38;;;10.00;;
11046;SDS011;5576;50.008;10.596;2023-03-03T14:05:00;11.32;;;8.60;;
11046;SDS011;5576;50.008;10.596;2023-03-03T14:07:33;9.75;;;8.15;;
11046;SDS011;5576;50.008;10.596;2023-03-03T14:10:20;17.33;;;13.48;;
11046;SDS011;5576;50.008;10.596;2023-03-03T14:13:07;15.65;;;12.07;;
11046;SDS011;5576;50.008;10.596;2023-03-03T14:15:46;11.70;;;8.90;;
11046;SDS011;5576;50.008;10.596;2023-03-03T14:21:27;12.65;;;10.30;;
11046;SDS011;5576;50.008;10.596;2023-03-03T14:26:43;16.40;;;12.38;;
11046;SDS011;5576;50.008;10.596;2023-03-03T14:29:23;13.02;;;10.45;;
11046;SDS011;5576;50.008;10.596;2023-03-03T14:31:56;9.30;;;7.60;;
11046;SDS011;5576;50.008;10.596;2023-03-03T14:34:29;8.73;;;7.20;;
11046;SDS011;5576;50.008;10.596;2023-03-03T14:39:49;9.77;;;8.40;;
11046;SDS011;5576;50.008;10.596;2023-03-03T14:42:34;9.80;;;7.70;;
11046;SDS011;5576;50.008;10.596;2023-03-03T14:48:05;9.70;;;8.33;;
11046;SDS011;5576;50.008;10.596;2023-03-03T14:50:42;11.45;;;9.93;;
11046;SDS011;5576;50.008;10.596;2023-03-03T14:58:49;10.05;;;7.45;;
11046;SDS011;5576;50.008;10.596;2023-03-03T15:01:21;10.38;;;7.50;;
11046;SDS011;5576;50.008;10.596;2023-03-03T15:03:57;8.80;;;7.20;;
11046;SDS011;5576;50.008;10.596;2023-03-03T15:06:34;9.85;;;7.18;;
11046;SDS011;5576;50.008;10.596;2023-03-03T15:11:53;9.05;;;7.00;;
11046;SDS011;5576;50.008;10.596;2023-03-03T15:14:21;6.40;;;5.60;;
11046;SDS011;5576;50.008;10.596;2023-03-03T15:16:57;9.13;;;7.43;;
11046;SDS011;5576;50.008;10.596;2023-03-03T15:19:43;9.50;;;7.43;;
11046;SDS011;5576;50.008;10.596;2023-03-03T15:28:26;6.60;;;4.90;;
11046;SDS011;5576;50.008;10.596;2023-03-03T15:33:59;6.82;;;5.85;;
11046;SDS011;5576;50.008;10.596;2023-03-03T15:44:11;7.07;;;5.28;;
11046;SDS011;5576;50.008;10.596;2023-03-03T15:49:45;8.13;;;7.20;;
11046;SDS011;5576;50.008;10.596;2023-03-03T15:57:39;4.85;;;4.05;;
11046;SDS011;5576;50.008;10.596;2023-03-03T16:03:29;5.93;;;5.00;;
11046;SDS011;5576;50.008;10.596;2023-03-03T16:06:04;8.27;;;7.18;;
11046;SDS011;5576;50.008;10.596;2023-03-03T16:11:28;6.15;;;5.55;;
11046;SDS011;5576;50.008;10.596;2023-03-03T16:16:59;7.05;;;6.00;;
11046;SDS011;5576;50.008;10.596;2023-03-03T16:19:36;8.43;;;7.55;;
11046;SDS011;5576;50.008;10.596;2023-03-03T16:22:13;9.55;;;7.43;;
11046;SDS011;5576;50.008;10.596;2023-03-03T16:24:58;7.82;;;5.30;;
11046;SDS011;5576;50.008;10.596;2023-03-03T16:27:57;11.32;;;8.57;;
11046;SDS011;5576;50.008;10.596;2023-03-03T16:33:17;6.17;;;5.13;;
11046;SDS011;5576;50.008;10.596;2023-03-03T16:36:03;5.90;;;4.80;;
11046;SDS011;5576;50.008;10.596;2023-03-03T16:38:34;20.60;;;15.55;;
11046;SDS011;5576;50.008;10.596;2023-03-03T16:41:06;12.60;;;10.40;;
11046;SDS011;5576;50.008;10.596;2023-03-03T16:51:48;6.53;;;5.55;;
11046;SDS011;5576;50.008;10.596;2023-03-03T16:57:18;7.70;;;6.53;;
11046;SDS011;5576;50.008;10.596;2023-03-03T17:00:01;7.93;;;6.50;;
11046;SDS011;5576;50.008;10.596;2023-03-03T17:02:36;6.50;;;5.68;;
11046;SDS011;5576;50.008;10.596;2023-03-03T17:22:02;6.97;;;5.80;;
11046;SDS011;5576;50.008;10.596;2023-03-03T17:24:35;7.40;;;5.90;;
11046;SDS011;5576;50.008;10.596;2023-03-03T17:36:31;6.38;;;5.20;;
11046;SDS011;5576;50.008;10.596;2023-03-03T17:39:28;6.05;;;4.93;;
11046;SDS011;5576;50.008;10.596;2023-03-03T17:44:36;7.22;;;5.60;;
11046;SDS011;5576;50.008;10.596;2023-03-03T17:47:10;7.30;;;5.70;;
11046;SDS011;5576;50.008;10.596;2023-03-03T17:52:52;7.55;;;5.28;;
11046;SDS011;5576;50.008;10.596;2023-03-03T18:04:22;9.38;;;6.72;;
11046;SDS011;5576;50.008;10.596;2023-03-03T18:07:10;11.57;;;7.82;;
11046;SDS011;5576;50.008;10.596;2023-03-03T18:15:29;6.85;;;5.40;;
11046;SDS011;5576;50.008;10.596;2023-03-03T18:18:26;6.20;;;5.22;;
11046;SDS011;5576;50.008;10.596;2023-03-03T18:23:39;6.88;;;5.05;;
11046;SDS011;5576;50.008;10.596;2023-03-03T18:31:45;20.17;;;14.93;;
11046;SDS011;5576;50.008;10.596;2023-03-03T18:39:46;15.23;;;10.27;;
11046;SDS011;5576;50.008;10.596;2023-03-03T18:44:40;19.25;;;10.60;;
11046;SDS011;5576;50.008;10.596;2023-03-03T18:47:06;12.13;;;8.40;;
11046;SDS011;5576;50.008;10.596;2023-03-03T18:49:49;23.25;;;19.90;;
11046;SDS011;5576;50.008;10.596;2023-03-03T18:52:22;21.05;;;16.20;;
11046;SDS011;5576;50.008;10.596;2023-03-03T18:57:36;10.90;;;8.70;;
11046;SDS011;5576;50.008;10.596;2023-03-03T19:02:52;9.63;;;7.30;;
11046;SDS011;5576;50.008;10.596;2023-03-03T19:05:30;18.38;;;13.23;;
11046;SDS011;5576;50.008;10.596;2023-03-03T19:08:03;157.95;;;98.25;;
11046;SDS011;5576;50.008;10.596;2023-03-03T19:10:47;87.97;;;49.78;;
11046;SDS011;5576;50.008;10.596;2023-03-03T19:16:01;74.43;;;44.53;;
11046;SDS011;5576;50.008;10.596;2023-03-03T19:18:30;35.00;;;23.17;;
11046;SDS011;5576;50.008;10.596;2023-03-03T19:20:59;23.98;;;17.38;;
11046;SDS011;5576;50.008;10.596;2023-03-03T19:34:33;13.48;;;10.93;;
11046;SDS011;5576;50.008;10.596;2023-03-03T19:37:12;12.68;;;10.25;;
11046;SDS011;5576;50.008;10.596;2023-03-03T19:42:28;26.98;;;20.75;;
11046;SDS011;5576;50.008;10.596;2023-03-03T19:50:31;21.67;;;16.27;;
11046;SDS011;5576;50.008;10.596;2023-03-03T19:53:03;25.15;;;19.50;;
11046;SDS011;5576;50.008;10.596;2023-03-03T19:55:42;25.83;;;21.10;;
11046;SDS011;5576;50.008;10.596;2023-03-03T20:03:48;11.90;;;9.43;;
11046;SDS011;5576;50.008;10.596;2023-03-03T20:15:10;29.50;;;22.90;;
11046;SDS011;5576;50.008;10.596;2023-03-03T20:17:45;21.95;;;17.17;;
11046;SDS011;5576;50.008;10.596;2023-03-03T20:20:40;16.23;;;13.32;;
11046;SDS011;5576;50.008;10.596;2023-03-03T20:25:54;9.73;;;8.65;;
11046;SDS011;5576;50.008;10.596;2023-03-03T20:37:06;9.73;;;8.70;;
11046;SDS011;5576;50.008;10.596;2023-03-03T20:39:44;8.83;;;7.63;;
11046;SDS011;5576;50.008;10.596;2023-03-03T20:42:22;8.77;;;7.47;;
11046;SDS011;5576;50.008;10.596;2023-03-03T21:00:25;13.45;;;10.93;;
11046;SDS011;5576;50.008;10.596;2023-03-03T21:05:30;10.07;;;8.40;;